Portada
METAR-TAF:

METAR-TAF

Aeroports :

Koror, Babeldaob, Palau

latitud: 07-22N, longitud: 134-32E, altitud: 54 m

Observació

L'informe es va fer fa 1 hora i 6 minuts, a les 06:50 UTC
Vent 10 kt del Est/Nord-Est
Temperatura 29°C
Humitat 74%
Pressió 1007 hPa
Visibilitat: 24.1 km
Cel ennuvolat a una alçada de 1500 ft, Cumulus congestus.
Cel ennuvolat a una alçada de 12000 ft
Cel ennuvolat a una alçada de 30000 ft

METAR: PTRO 180650Z 06010KT 15SM BKN015TCU BKN120 BKN300 29/24 A2973 RMK TCU ALQDS

Hora: 16:56 (07:56 UTC)

Pronòstic

L'informe es va fer fa 2 hores i 32 minuts, a les 05:24 UTC
Pronòstic vàlid del 18 a les 06 UTC al 19 a les 06 UTC
Vent 10 kt del Est/Nord-Est
Visibilitat: 10 km
Núvols disperses a una alçada de 1500 ft
Cel ennuvolat a una alçada de 12000 ft
xàfecs en les proximitats

TAF: PTRO 180524Z 1806/1906 07010KT P6SM VCSH SCT015 BKN120

Observacions i pronòstics meteorològics de més de 4000 aeroports (METAR i TAF).

Les estacions disponibles són els punts grocs i vermells al mapa.

Posi el ratolí al punt desitjat per veure el nom de l'estació.

Feu clic per veure les observacions i els pronòstics meteorològics.

Per canviar el mapa: feu clic els botons verds amb una creu de color negre per apropar; al botó verd amb un guió per allunyar la imatge; o en les fletxes verdes per a mapes adjacents.


METAR-TAF: